Time;durP1;ratioP1;P1;durP2;ratioP2;P2;SDS_P1;SDS_P2;PMS_P1;PMS_P2;Temp;Humidity;BMP_temperature;BMP_pressure;BME280_temperature;BME280_humidity;BME280_pressure;Samples;Min_cycle;Max_cycle;Signal;HPM_P1;HPM_P2
2021/11/09 00:00:09;;;;;;;26.48;4.22;;;8.20;99.90;;;;;;4872214;29;20033;-81
2021/11/09 00:02:35;;;;;;;10.77;3.45;;;8.20;99.90;;;;;;4860163;29;20037;-81
2021/11/09 00:05:03;;;;;;;13.55;4.10;;;8.10;99.90;;;;;;4880351;29;20161;-81
2021/11/09 00:07:40;;;;;;;16.35;4.25;;;8.20;99.90;;;;;;4862925;29;20100;-80
2021/11/09 00:10:07;;;;;;;10.57;3.83;;;8.10;99.90;;;;;;4864258;29;20116;-80
2021/11/09 00:12:43;;;;;;;10.68;3.00;;;8.10;99.90;;;;;;4858896;29;20067;-80
2021/11/09 00:15:11;;;;;;;14.88;3.88;;;8.20;99.90;;;;;;4862179;29;20479;-80
2021/11/09 00:17:37;;;;;;;17.20;3.08;;;8.20;99.90;;;;;;4861542;29;20048;-80
2021/11/09 00:20:07;;;;;;;18.50;3.55;;;8.10;99.90;;;;;;4868655;29;20395;-80
2021/11/09 00:22:32;;;;;;;16.02;3.63;;;8.10;99.90;;;;;;4880139;29;20031;-80
2021/11/09 00:24:58;;;;;;;15.38;4.43;;;8.10;99.90;;;;;;4872197;29;20032;-81
2021/11/09 00:27:24;;;;;;;16.52;4.25;;;8.10;99.90;;;;;;4880135;29;20033;-80
2021/11/09 00:29:50;;;;;;;9.75;3.00;;;8.10;99.90;;;;;;4861603;29;20037;-80
2021/11/09 00:32:16;;;;;;;14.30;3.20;;;8.10;99.90;;;;;;4860107;29;20042;-79
2021/11/09 00:34:44;;;;;;;15.00;3.88;;;8.10;99.90;;;;;;4871264;29;20141;-81
2021/11/09 00:37:10;;;;;;;17.85;4.47;;;8.00;99.90;;;;;;4862425;29;20107;-81
2021/11/09 00:39:37;;;;;;;18.58;4.32;;;8.00;99.90;;;;;;4880480;29;20056;-79
2021/11/09 00:42:03;;;;;;;16.10;4.10;;;8.00;99.90;;;;;;4861389;29;20463;-80
2021/11/09 00:44:30;;;;;;;13.23;3.70;;;8.00;99.90;;;;;;4863456;29;20040;-80
2021/11/09 00:46:56;;;;;;;10.90;3.22;;;8.00;99.90;;;;;;4878960;29;20183;-81
2021/11/09 00:49:22;;;;;;;12.57;3.47;;;8.00;99.90;;;;;;4879107;29;20576;-80
2021/11/09 00:51:48;;;;;;;23.45;4.38;;;8.10;99.90;;;;;;4863013;29;20072;-80
2021/11/09 00:54:16;;;;;;;25.90;4.18;;;8.10;99.90;;;;;;4876007;29;20037;-80
2021/11/09 00:56:41;;;;;;;41.60;5.50;;;8.10;99.90;;;;;;4849690;29;20033;-79
2021/11/09 00:59:07;;;;;;;14.15;3.35;;;8.00;99.90;;;;;;4863000;29;20021;-79
2021/11/09 01:01:33;;;;;;;13.88;3.75;;;8.00;99.90;;;;;;4857997;29;20030;-79
2021/11/09 01:03:59;;;;;;;11.57;3.42;;;8.00;99.90;;;;;;4859958;29;20072;-80
2021/11/09 01:06:25;;;;;;;12.43;3.75;;;8.00;99.90;;;;;;4862147;29;20036;-80
2021/11/09 01:08:52;;;;;;;20.05;4.20;;;8.00;99.90;;;;;;4863527;29;20097;-80
2021/11/09 01:11:18;;;;;;;15.10;3.70;;;8.00;99.90;;;;;;4885727;29;20041;-83
2021/11/09 01:13:45;;;;;;;14.13;3.85;;;8.00;99.90;;;;;;4876086;29;20543;-78
2021/11/09 01:16:11;;;;;;;13.60;3.90;;;8.10;99.90;;;;;;4862137;29;20029;-80
2021/11/09 01:18:41;;;;;;;14.77;4.60;;;8.10;99.90;;;;;;4879087;29;20033;-80
2021/11/09 01:21:07;;;;;;;22.70;4.65;;;8.00;99.90;;;;;;4860974;29;20563;-79
2021/11/09 01:23:34;;;;;;;21.52;4.68;;;8.00;99.90;;;;;;4886972;29;20029;-80
2021/11/09 01:26:01;;;;;;;17.70;5.25;;;8.00;99.90;;;;;;4872162;29;20083;-80
2021/11/09 01:28:27;;;;;;;20.88;5.13;;;8.00;99.90;;;;;;4865271;29;20041;-79
2021/11/09 01:30:53;;;;;;;23.25;6.30;;;8.00;99.90;;;;;;4879429;29;20031;-81
2021/11/09 01:33:20;;;;;;;16.10;5.95;;;8.00;99.90;;;;;;4862621;29;20041;-81
2021/11/09 01:35:46;;;;;;;28.45;6.80;;;8.00;99.90;;;;;;4876929;29;20044;-81
2021/11/09 01:38:12;;;;;;;16.80;5.10;;;8.00;99.90;;;;;;4879692;29;20033;-80
2021/11/09 01:40:40;;;;;;;14.25;5.03;;;8.00;99.90;;;;;;4862329;29;20096;-81
2021/11/09 01:43:07;;;;;;;18.58;6.30;;;8.00;99.90;;;;;;4863166;29;20037;-81
2021/11/09 01:45:33;;;;;;;17.35;4.78;;;8.00;99.90;;;;;;4880250;29;20045;-81
2021/11/09 01:47:59;;;;;;;15.18;5.22;;;8.00;99.90;;;;;;4880038;29;20033;-81
2021/11/09 01:50:29;;;;;;;14.20;4.72;;;8.10;99.90;;;;;;4863063;29;20024;-81
2021/11/09 01:52:56;;;;;;;24.73;5.70;;;8.00;99.90;;;;;;4871403;29;20108;-82
2021/11/09 01:55:23;;;;;;;14.18;4.50;;;8.00;99.90;;;;;;4853882;29;20017;-82
2021/11/09 01:57:50;;;;;;;32.15;6.63;;;8.00;99.90;;;;;;4879998;29;20237;-82
2021/11/09 02:00:27;;;;;;;20.20;6.57;;;8.00;99.90;;;;;;4860068;29;20491;-81
2021/11/09 02:02:53;;;;;;;17.97;5.13;;;8.00;99.90;;;;;;4878813;29;20025;-81
2021/11/09 02:05:20;;;;;;;18.65;5.50;;;8.00;99.90;;;;;;4862617;29;20124;-82
2021/11/09 02:07:49;;;;;;;22.48;6.28;;;7.90;99.90;;;;;;4862736;29;20181;-82
2021/11/09 02:10:16;;;;;;;20.95;4.82;;;7.90;99.90;;;;;;4863101;29;20084;-81
2021/11/09 02:12:42;;;;;;;21.75;4.53;;;7.90;99.90;;;;;;4879908;29;20056;-82
2021/11/09 02:15:09;;;;;;;23.83;5.85;;;7.90;99.90;;;;;;4862582;29;20116;-82
2021/11/09 02:17:40;;;;;;;16.73;5.18;;;7.80;99.90;;;;;;4860446;29;20045;-81
2021/11/09 02:20:08;;;;;;;15.73;3.70;;;7.90;99.90;;;;;;4879925;29;20096;-82
2021/11/09 02:22:34;;;;;;;12.63;5.17;;;7.80;99.90;;;;;;4858856;29;20064;-82
2021/11/09 02:25:03;;;;;;;19.65;5.57;;;7.80;99.90;;;;;;4859546;29;20031;-82
2021/11/09 02:27:29;;;;;;;31.40;5.28;;;7.80;99.90;;;;;;4878374;29;20040;-82
2021/11/09 02:29:55;;;;;;;19.17;4.55;;;7.70;99.90;;;;;;4879162;29;20093;-82
2021/11/09 02:32:21;;;;;;;19.75;4.35;;;7.70;99.90;;;;;;4883358;29;20025;-82
2021/11/09 02:34:47;;;;;;;23.98;5.72;;;7.70;99.90;;;;;;4878409;29;20047;-82
2021/11/09 02:37:12;;;;;;;26.70;4.85;;;7.70;99.90;;;;;;4862889;29;20522;-81
2021/11/09 02:39:38;;;;;;;14.80;4.35;;;7.60;99.90;;;;;;4863456;29;20326;-82
2021/11/09 02:42:13;;;;;;;21.10;4.65;;;7.60;99.90;;;;;;4882930;29;20021;-83
2021/11/09 02:45:00;;;;;;;14.80;5.53;;;7.60;99.90;;;;;;4866171;29;20040;-83
2021/11/09 02:47:30;;;;;;;20.08;6.72;;;7.60;99.90;;;;;;4856877;29;20064;-82
2021/11/09 02:49:59;;;;;;;19.85;6.43;;;7.50;99.90;;;;;;4878095;29;20064;-82
2021/11/09 02:52:27;;;;;;;25.70;5.82;;;7.50;99.90;;;;;;4866020;29;20041;-82
2021/11/09 02:55:00;;;;;;;20.08;5.78;;;7.50;99.90;;;;;;4866232;29;20438;-82
2021/11/09 02:57:43;;;;;;;23.60;5.45;;;7.50;99.90;;;;;;4883157;29;20467;-82
2021/11/09 03:00:25;;;;;;;19.90;5.43;;;7.40;99.90;;;;;;4889749;29;20161;-82
2021/11/09 03:05:51;;;;;;;17.95;4.93;;;7.40;99.90;;;;;;4853064;29;20120;-83
2021/11/09 03:08:35;;;;;;;25.00;5.43;;;7.40;99.90;;;;;;4862030;29;20415;-83
2021/11/09 03:11:02;;;;;;;20.73;5.38;;;7.40;99.90;;;;;;4853359;29;20482;-82
2021/11/09 03:13:28;;;;;;;19.52;4.82;;;7.40;99.90;;;;;;4865333;29;20399;-83
2021/11/09 03:16:00;;;;;;;14.40;5.00;;;7.40;99.90;;;;;;4865755;29;20033;-82
2021/11/09 03:18:27;;;;;;;23.27;6.22;;;7.40;99.90;;;;;;4864769;29;20077;-83
2021/11/09 03:40:49;;;;;;;13.88;5.28;;;7.30;99.90;;;;;;4896790;29;20063;-82
2021/11/09 03:45:30;;;;;;;15.57;4.68;;;7.30;99.90;;;;;;4905077;29;20048;-82
2021/11/09 03:48:04;;;;;;;20.27;5.07;;;7.30;99.90;;;;;;4885846;29;20056;-81
2021/11/09 03:50:32;;;;;;;26.85;6.20;;;7.20;99.90;;;;;;4893596;29;20024;-81
2021/11/09 03:53:01;;;;;;;9.55;3.85;;;7.20;99.90;;;;;;4906332;29;20025;-81
2021/11/09 03:58:07;;;;;;;19.75;5.05;;;7.30;99.90;;;;;;4887438;29;20036;-82
2021/11/09 04:00:45;;;;;;;12.75;4.22;;;7.30;99.90;;;;;;4902846;29;20018;-81
2021/11/09 04:06:07;;;;;;;16.25;5.03;;;7.20;99.90;;;;;;4899995;29;20021;-81
2021/11/09 04:19:04;;;;;;;19.60;5.53;;;7.20;99.90;;;;;;4894964;29;20049;-81
2021/11/09 04:29:48;;;;;;;8.65;5.13;;;7.20;99.90;;;;;;4890610;29;20041;-81
2021/11/09 05:09:37;;;;;;;29.13;7.95;;;7.20;99.90;;;;;;4875803;29;20106;-80
2021/11/09 05:12:03;;;;;;;19.45;5.68;;;7.20;99.90;;;;;;4869324;29;20029;-81
2021/11/09 05:14:30;;;;;;;22.05;5.97;;;7.20;99.90;;;;;;4880232;29;20070;-80
2021/11/09 05:16:57;;;;;;;21.25;5.38;;;7.20;99.90;;;;;;4873240;29;20039;-81
2021/11/09 05:19:23;;;;;;;15.05;6.05;;;7.20;99.90;;;;;;4881082;29;20475;-80
2021/11/09 05:21:48;;;;;;;16.85;5.75;;;7.20;99.90;;;;;;4880253;29;20033;-81
2021/11/09 05:24:14;;;;;;;20.50;6.38;;;7.20;99.90;;;;;;4863307;29;20035;-81
2021/11/09 05:26:43;;;;;;;24.25;7.32;;;7.10;99.90;;;;;;4879891;29;20403;-77
2021/11/09 05:29:11;;;;;;;18.33;6.57;;;7.20;99.90;;;;;;4861502;29;20037;-78
2021/11/09 05:31:37;;;;;;;22.88;6.13;;;7.20;99.90;;;;;;4857317;29;20039;-79
2021/11/09 05:34:04;;;;;;;16.30;6.68;;;7.20;99.90;;;;;;4860023;29;20029;-79
2021/11/09 05:36:33;;;;;;;23.02;5.85;;;7.20;99.90;;;;;;4862865;29;20073;-79
2021/11/09 05:39:16;;;;;;;26.60;6.13;;;7.20;99.90;;;;;;4859615;29;20038;-79
2021/11/09 05:41:43;;;;;;;17.55;6.07;;;7.20;99.90;;;;;;4862195;29;20040;-79
2021/11/09 05:44:09;;;;;;;18.08;5.78;;;7.20;99.90;;;;;;4863110;29;20040;-77
2021/11/09 05:46:37;;;;;;;21.10;6.97;;;7.20;99.90;;;;;;4878544;29;20120;-77
2021/11/09 05:49:04;;;;;;;24.95;6.30;;;7.30;99.90;;;;;;4866754;29;20030;-78
2021/11/09 05:51:32;;;;;;;26.00;6.85;;;7.30;99.90;;;;;;4858778;29;20079;-78
2021/11/09 05:54:00;;;;;;;25.75;5.72;;;7.30;99.90;;;;;;4862284;29;20040;-77
2021/11/09 05:56:26;;;;;;;22.05;6.70;;;7.30;99.90;;;;;;4855235;29;20089;-81
2021/11/09 05:58:52;;;;;;;22.35;6.50;;;7.30;99.90;;;;;;4859100;29;20511;-79
2021/11/09 06:01:18;;;;;;;29.98;7.53;;;7.30;99.90;;;;;;4865160;29;20068;-78
2021/11/09 06:03:45;;;;;;;13.48;5.30;;;7.30;99.90;;;;;;4869610;29;20409;-79
2021/11/09 06:06:11;;;;;;;26.00;7.45;;;7.30;99.90;;;;;;4866372;29;20057;-79
2021/11/09 06:08:36;;;;;;;18.95;6.75;;;7.30;99.90;;;;;;4866224;29;20080;-79
2021/11/09 06:11:02;;;;;;;18.42;6.30;;;7.30;99.90;;;;;;4866660;29;20021;-78
2021/11/09 06:13:28;;;;;;;19.38;6.45;;;7.30;99.90;;;;;;4863156;29;20124;-78
2021/11/09 06:15:54;;;;;;;17.33;5.75;;;7.30;99.90;;;;;;4863425;29;20456;-78
2021/11/09 06:18:26;;;;;;;25.90;6.05;;;7.30;99.90;;;;;;4866448;29;20033;-78
2021/11/09 06:20:52;;;;;;;26.17;7.20;;;7.30;99.90;;;;;;4863448;29;20042;-78
2021/11/09 06:23:18;;;;;;;24.80;6.35;;;7.30;99.90;;;;;;4863582;29;20041;-79
2021/11/09 06:25:44;;;;;;;18.35;6.15;;;7.30;99.90;;;;;;4880988;29;20411;-79
2021/11/09 06:28:12;;;;;;;12.35;5.18;;;7.30;99.90;;;;;;4882329;29;20025;-77
2021/11/09 06:30:38;;;;;;;21.65;5.95;;;7.40;99.90;;;;;;4866169;29;20112;-78
2021/11/09 06:33:04;;;;;;;20.08;5.82;;;7.40;99.90;;;;;;4874870;29;20045;-77
2021/11/09 06:35:29;;;;;;;15.80;6.10;;;7.40;99.90;;;;;;4867603;29;20391;-78
2021/11/09 06:37:55;;;;;;;22.83;6.43;;;7.40;99.90;;;;;;4882979;29;20033;-78
2021/11/09 06:40:21;;;;;;;12.43;4.97;;;7.50;99.90;;;;;;4863676;29;20037;-78
2021/11/09 06:42:47;;;;;;;18.60;6.20;;;7.60;99.90;;;;;;4863035;29;20033;-79
2021/11/09 06:45:12;;;;;;;17.50;4.95;;;7.60;99.90;;;;;;4865353;29;20025;-78
2021/11/09 06:47:38;;;;;;;27.20;5.63;;;7.60;99.90;;;;;;4883930;29;20446;-79
2021/11/09 06:50:07;;;;;;;17.05;5.75;;;7.60;99.90;;;;;;4878028;29;20019;-79
2021/11/09 06:52:33;;;;;;;24.73;6.72;;;7.70;99.90;;;;;;4863950;29;20109;-79
2021/11/09 06:54:59;;;;;;;19.60;6.65;;;7.60;99.90;;;;;;4866334;29;20032;-81
2021/11/09 06:57:25;;;;;;;22.38;6.57;;;7.60;99.90;;;;;;4860811;29;20037;-81
2021/11/09 06:59:52;;;;;;;18.40;5.65;;;7.70;99.90;;;;;;4881880;29;20461;-81
2021/11/09 07:02:19;;;;;;;29.63;6.78;;;7.70;99.90;;;;;;4865355;29;20048;-81
2021/11/09 07:04:45;;;;;;;16.52;5.57;;;7.70;99.90;;;;;;4867942;29;20032;-80
2021/11/09 07:07:10;;;;;;;18.95;5.57;;;7.70;99.90;;;;;;4865069;29;20029;-81
2021/11/09 07:09:36;;;;;;;30.90;6.90;;;7.70;99.90;;;;;;4882849;29;20040;-80
2021/11/09 07:12:03;;;;;;;12.15;4.68;;;7.60;99.90;;;;;;4865869;29;20531;-80
2021/11/09 07:14:28;;;;;;;18.98;5.47;;;7.70;99.90;;;;;;4865757;29;20410;-80
2021/11/09 07:16:54;;;;;;;22.08;7.28;;;7.70;99.90;;;;;;4865387;29;20025;-80
2021/11/09 07:19:21;;;;;;;24.95;7.47;;;7.70;99.90;;;;;;4874074;29;20033;-81
2021/11/09 07:21:48;;;;;;;18.92;6.50;;;7.70;99.90;;;;;;4865734;29;20056;-80
2021/11/09 07:24:14;;;;;;;15.05;5.57;;;7.80;99.90;;;;;;4862478;29;20033;-79
2021/11/09 07:26:40;;;;;;;12.93;6.03;;;7.80;99.90;;;;;;4862231;29;20037;-80
2021/11/09 07:29:06;;;;;;;20.33;6.18;;;7.80;99.90;;;;;;4877361;29;20049;-81
2021/11/09 07:31:32;;;;;;;18.58;6.00;;;7.80;99.90;;;;;;4865215;29;20047;-80
2021/11/09 07:33:59;;;;;;;15.98;5.18;;;7.80;99.90;;;;;;4884023;29;20035;-82
2021/11/09 07:36:25;;;;;;;21.80;5.50;;;7.90;99.90;;;;;;4881263;29;20498;-82
2021/11/09 07:38:52;;;;;;;19.08;6.18;;;7.90;99.90;;;;;;4876668;29;20032;-81
2021/11/09 07:41:18;;;;;;;30.52;7.40;;;8.00;99.90;;;;;;4880777;29;20032;-82
2021/11/09 07:43:44;;;;;;;18.40;6.15;;;8.00;99.90;;;;;;4868098;29;20502;-82
2021/11/09 07:46:10;;;;;;;14.02;5.88;;;8.00;99.90;;;;;;4864680;29;20111;-81
2021/11/09 07:48:36;;;;;;;21.52;6.38;;;8.10;99.90;;;;;;4882309;29;20045;-80
2021/11/09 07:51:01;;;;;;;12.55;5.30;;;8.10;99.90;;;;;;4859461;29;20056;-80
2021/11/09 07:53:30;;;;;;;17.17;5.85;;;8.10;99.90;;;;;;4874624;29;20018;-81
2021/11/09 07:56:11;;;;;;;17.77;6.80;;;8.10;99.90;;;;;;4864954;29;20037;-81
2021/11/09 07:58:51;;;;;;;18.20;5.78;;;8.20;99.90;;;;;;4865324;29;20130;-80
2021/11/09 08:01:18;;;;;;;17.73;5.82;;;8.30;99.90;;;;;;4863103;29;20111;-80
2021/11/09 08:04:12;;;;;;;14.65;5.60;;;8.30;99.90;;;;;;4883595;29;20506;-80
2021/11/09 08:06:46;;;;;;;19.73;5.40;;;8.30;99.90;;;;;;4881227;29;20032;-81
2021/11/09 08:09:21;;;;;;;24.33;6.93;;;8.40;99.90;;;;;;4865687;29;20039;-81
2021/11/09 08:11:48;;;;;;;15.85;5.43;;;8.40;99.90;;;;;;4864322;29;20506;-81
2021/11/09 08:14:15;;;;;;;31.25;6.47;;;8.50;99.90;;;;;;4864442;29;20029;-81
2021/11/09 08:16:41;;;;;;;21.98;6.10;;;8.50;99.90;;;;;;4865188;29;20043;-81
2021/11/09 08:19:07;;;;;;;27.45;5.80;;;8.60;99.90;;;;;;4865713;29;20017;-81
2021/11/09 08:21:35;;;;;;;22.23;5.70;;;8.60;99.90;;;;;;4881915;29;20063;-81
2021/11/09 08:24:01;;;;;;;;;;;8.70;99.90;;;;;;4880992;29;20523;-81
2021/11/09 08:26:27;;;;;;;20.80;6.82;;;8.80;99.90;;;;;;4874296;29;19919;-82
2021/11/09 08:28:55;;;;;;;19.45;4.90;;;8.90;99.90;;;;;;4864358;29;20025;-81
2021/11/09 08:31:24;;;;;;;19.42;5.03;;;8.80;99.90;;;;;;4864379;29;20487;-82
2021/11/09 08:33:50;;;;;;;24.48;5.72;;;8.90;99.90;;;;;;4864168;29;20018;-82
2021/11/09 08:36:23;;;;;;;14.05;5.43;;;8.90;99.90;;;;;;4861251;29;20049;-81
2021/11/09 08:38:50;;;;;;;25.48;6.75;;;9.00;99.90;;;;;;4890404;29;20032;-82
2021/11/09 08:41:18;;;;;;;21.30;5.63;;;9.00;99.90;;;;;;4892022;29;20029;-83
2021/11/09 08:46:32;;;;;;;17.02;5.50;;;9.10;99.90;;;;;;4880660;29;20044;-80
2021/11/09 08:48:58;;;;;;;14.65;5.70;;;9.20;99.90;;;;;;4863641;29;20036;-82
2021/11/09 08:51:24;;;;;;;24.20;7.88;;;9.30;99.90;;;;;;4865380;29;20538;-81
2021/11/09 09:04:50;;;;;;;17.08;5.88;;;9.60;99.90;;;;;;4879250;29;20040;-83
2021/11/09 09:07:16;;;;;;;17.95;5.38;;;9.60;99.90;;;;;;4880220;29;20120;-82
2021/11/09 09:09:42;;;;;;;16.77;4.85;;;9.60;99.90;;;;;;4879665;29;20531;-81
2021/11/09 09:12:08;;;;;;;20.73;5.22;;;9.60;99.90;;;;;;4876902;29;20480;-81
2021/11/09 09:14:33;;;;;;;20.23;5.57;;;9.70;99.90;;;;;;4879732;29;20443;-81
2021/11/09 09:17:02;;;;;;;18.08;5.05;;;9.70;99.90;;;;;;4862679;29;20518;-84
2021/11/09 09:19:40;;;;;;;14.05;6.05;;;9.80;99.90;;;;;;4879005;29;20372;-85
2021/11/09 09:22:14;;;;;;;10.60;5.22;;;9.80;99.90;;;;;;4864437;29;20036;-82
2021/11/09 09:27:32;;;;;;;15.88;5.63;;;9.90;99.90;;;;;;4890022;29;20033;-82
2021/11/09 09:54:51;;;;;;;20.35;5.78;;;10.30;99.90;;;;;;4880892;29;20064;-82
2021/11/09 09:57:11;;;;;;;18.15;6.22;;;10.30;99.90;;;;;;4879694;29;20030;-84
2021/11/09 09:59:39;;;;;;;22.08;6.90;;;10.40;99.90;;;;;;4864857;29;20033;-81
2021/11/09 10:02:16;;;;;;;;;;;10.50;99.90;;;;;;4881847;29;20064;-81
2021/11/09 10:05:00;;;;;;;24.13;6.85;;;10.50;99.90;;;;;;4868281;29;19915;-81
2021/11/09 10:07:37;;;;;;;18.35;5.88;;;10.50;99.90;;;;;;4863719;29;20054;-83
2021/11/09 10:10:17;;;;;;;23.05;5.30;;;10.50;99.90;;;;;;4863207;29;20106;-81
2021/11/09 10:13:00;;;;;;;17.02;5.88;;;10.50;99.90;;;;;;4864980;29;20045;-84
2021/11/09 10:15:28;;;;;;;15.43;6.03;;;10.50;99.90;;;;;;4863660;29;20372;-81
2021/11/09 10:17:59;;;;;;;21.17;7.05;;;10.60;99.90;;;;;;4879915;29;20041;-81
2021/11/09 10:20:30;;;;;;;17.10;6.35;;;10.60;99.90;;;;;;4880973;29;20048;-82
2021/11/09 10:23:07;;;;;;;21.48;6.85;;;10.70;99.90;;;;;;4880598;29;20041;-80
2021/11/09 10:25:35;;;;;;;19.85;5.47;;;10.70;99.90;;;;;;4863915;29;20033;-82
2021/11/09 10:28:03;;;;;;;;;;;10.80;99.90;;;;;;4860745;29;20076;-80
2021/11/09 10:30:34;;;;;;;15.27;5.90;;;10.80;99.90;;;;;;4863860;29;20334;-83
2021/11/09 10:32:59;;;;;;;14.70;6.63;;;10.80;99.90;;;;;;4876518;29;20052;-81
2021/11/09 10:35:26;;;;;;;24.00;5.78;;;10.80;99.90;;;;;;4880268;29;20044;-83
2021/11/09 10:37:57;;;;;;;23.00;5.47;;;10.90;99.90;;;;;;4864677;29;20045;-82
2021/11/09 10:40:30;;;;;;;16.42;6.60;;;10.90;99.90;;;;;;4863383;29;20181;-82
2021/11/09 10:43:00;;;;;;;20.33;6.38;;;11.00;99.90;;;;;;4864138;29;20030;-83
2021/11/09 10:45:29;;;;;;;20.83;5.95;;;11.00;99.90;;;;;;4863368;29;20073;-84
2021/11/09 10:48:01;;;;;;;21.42;6.68;;;11.00;99.90;;;;;;4863424;29;20077;-82
2021/11/09 10:50:35;;;;;;;19.65;6.32;;;11.10;99.90;;;;;;4866505;29;20463;-85
2021/11/09 11:06:34;;;;;;;17.73;5.85;;;11.50;99.90;;;;;;4884998;29;20043;-83
2021/11/09 11:09:14;;;;;;;17.27;6.07;;;11.50;99.90;;;;;;4874193;29;20113;-83
2021/11/09 11:11:47;;;;;;;25.33;9.23;;;11.60;99.90;;;;;;4882085;29;20391;-83
2021/11/09 11:14:31;;;;;;;24.35;5.25;;;11.60;99.90;;;;;;4884574;29;20025;-84
2021/11/09 11:17:08;;;;;;;20.10;6.25;;;11.60;99.90;;;;;;4879277;29;20042;-82
2021/11/09 11:19:38;;;;;;;12.27;5.05;;;11.70;99.90;;;;;;4882027;29;20033;-82
2021/11/09 11:22:09;;;;;;;21.83;6.07;;;11.80;99.90;;;;;;4884449;29;20025;-83
2021/11/09 11:24:35;;;;;;;18.52;5.20;;;12.00;99.90;;;;;;4866997;29;20037;-85
2021/11/09 11:27:02;;;;;;;22.35;5.70;;;11.90;99.90;;;;;;4867560;29;20077;-82
2021/11/09 11:29:37;;;;;;;20.65;7.65;;;12.00;99.90;;;;;;4883304;29;20125;-84
2021/11/09 11:32:13;;;;;;;20.13;5.70;;;11.90;99.90;;;;;;4866517;29;20471;-83
2021/11/09 11:34:39;;;;;;;24.10;7.45;;;11.90;99.90;;;;;;4880987;29;20079;-83
2021/11/09 11:37:06;;;;;;;22.48;6.18;;;11.90;99.90;;;;;;4884372;29;20093;-83
2021/11/09 11:39:38;;;;;;;20.88;5.32;;;11.90;99.90;;;;;;4884430;29;20054;-82
2021/11/09 11:42:08;;;;;;;21.90;5.70;;;12.00;99.90;;;;;;4884476;29;20394;-82
2021/11/09 11:44:41;;;;;;;16.73;5.53;;;12.00;99.90;;;;;;4868783;29;20051;-82
2021/11/09 11:47:18;;;;;;;16.52;4.95;;;12.00;99.90;;;;;;4887094;29;20071;-84
2021/11/09 11:49:51;;;;;;;14.38;5.85;;;12.00;99.90;;;;;;4895542;29;20037;-83
2021/11/09 11:52:19;;;;;;;15.80;5.18;;;12.10;99.90;;;;;;4872782;29;20017;-82
2021/11/09 11:54:46;;;;;;;18.30;5.75;;;12.10;99.90;;;;;;4877262;29;20029;-82
2021/11/09 11:57:37;;;;;;;23.35;5.78;;;12.10;99.90;;;;;;4888227;29;20032;-82
2021/11/09 12:00:26;;;;;;;17.42;4.82;;;12.10;99.90;;;;;;4902854;29;20021;-82
2021/11/09 12:02:52;;;;;;;18.00;4.90;;;12.10;99.90;;;;;;4884677;29;20025;-80
2021/11/09 12:05:59;;;;;;;16.83;5.45;;;12.10;99.90;;;;;;4911060;29;20084;-81
2021/11/09 12:08:43;;;;;;;13.55;5.07;;;12.10;99.90;;;;;;4866804;29;20070;-81
2021/11/09 12:11:36;;;;;;;15.68;5.13;;;12.10;99.90;;;;;;4904383;29;20069;-82
2021/11/09 12:14:11;;;;;;;17.13;5.55;;;12.20;99.90;;;;;;4889228;29;20073;-81
2021/11/09 12:16:52;;;;;;;19.42;6.10;;;12.30;99.90;;;;;;4886334;29;20013;-80
2021/11/09 12:19:41;;;;;;;13.00;5.25;;;12.40;99.90;;;;;;4901212;29;20029;-79
2021/11/09 12:22:12;;;;;;;13.65;5.32;;;12.40;99.90;;;;;;4904905;29;20097;-79
2021/11/09 12:24:52;;;;;;;20.63;5.97;;;12.40;99.90;;;;;;4902936;29;20037;-81
2021/11/09 12:27:20;;;;;;;27.90;6.70;;;12.50;99.90;;;;;;4888977;29;20020;-81
2021/11/09 12:29:54;;;;;;;11.73;5.25;;;12.50;99.90;;;;;;4904934;29;20085;-80
2021/11/09 12:32:25;;;;;;;19.75;6.20;;;12.60;99.90;;;;;;4889263;29;20009;-81
2021/11/09 12:35:05;;;;;;;12.00;5.40;;;12.60;99.90;;;;;;4905059;29;20045;-80
2021/11/09 12:37:38;;;;;;;17.83;5.13;;;12.50;99.90;;;;;;4889078;29;20041;-81
2021/11/09 12:40:23;;;;;;;18.65;6.60;;;12.50;99.90;;;;;;4891569;29;20036;-81
2021/11/09 12:43:22;;;;;;;16.67;5.50;;;12.60;99.90;;;;;;4881528;29;20029;-81
2021/11/09 12:46:01;;;;;;;19.95;5.60;;;12.60;99.90;;;;;;4902633;29;20036;-81
2021/11/09 12:48:29;;;;;;;17.55;5.45;;;12.50;99.90;;;;;;4901463;29;20089;-82
2021/11/09 12:51:02;;;;;;;25.48;5.85;;;12.50;99.90;;;;;;4900197;29;20044;-78
2021/11/09 12:53:28;;;;;;;16.17;5.65;;;12.60;99.90;;;;;;4890586;29;20514;-83
2021/11/09 12:55:56;;;;;;;20.40;5.63;;;12.60;99.90;;;;;;4885670;29;20104;-82
2021/11/09 12:58:25;;;;;;;22.08;5.13;;;12.70;99.90;;;;;;4867859;29;20033;-82
2021/11/09 13:01:53;;;;;;;18.85;5.18;;;12.80;99.90;;;;;;4868093;29;20025;-83
2021/11/09 13:07:12;;;;;;;11.15;4.63;;;12.70;99.90;;;;;;4879705;29;20033;-82
2021/11/09 13:09:44;;;;;;;17.20;5.10;;;12.80;99.90;;;;;;4861883;29;20041;-79
2021/11/09 13:12:29;;;;;;;13.77;4.80;;;12.80;99.90;;;;;;4880418;29;20420;-82
2021/11/09 13:15:01;;;;;;;17.42;4.72;;;12.90;99.90;;;;;;4881954;29;20426;-81
2021/11/09 13:17:40;;;;;;;21.55;4.15;;;12.90;99.90;;;;;;4865627;29;20081;-81
2021/11/09 13:22:56;;;;;;;10.73;5.28;;;12.90;99.90;;;;;;4884584;29;20105;-83
2021/11/09 13:25:31;;;;;;;19.15;4.63;;;12.80;99.90;;;;;;4862874;29;20491;-82
2021/11/09 13:27:57;;;;;;;16.42;5.03;;;12.80;99.90;;;;;;4862392;29;20045;-82
2021/11/09 13:30:25;;;;;;;13.93;4.35;;;12.80;99.90;;;;;;4879291;29;20111;-80
2021/11/09 13:32:57;;;;;;;14.55;5.55;;;12.80;99.90;;;;;;4860339;29;20045;-81
2021/11/09 13:35:26;;;;;;;14.07;4.18;;;12.80;99.90;;;;;;4876835;29;20045;-82
2021/11/09 13:38:06;;;;;;;19.02;5.00;;;12.70;99.90;;;;;;4862703;29;20054;-81
2021/11/09 13:40:33;;;;;;;12.77;4.25;;;12.80;99.90;;;;;;4862676;29;20398;-82
2021/11/09 13:43:01;;;;;;;10.95;4.60;;;12.80;99.90;;;;;;4876251;29;20052;-82
2021/11/09 13:45:27;;;;;;;15.73;4.80;;;12.70;99.90;;;;;;4880892;29;20040;-82
2021/11/09 13:47:53;;;;;;;14.30;4.72;;;12.80;99.90;;;;;;4878450;29;20117;-85
2021/11/09 13:50:19;;;;;;;15.52;5.53;;;12.80;99.90;;;;;;4847689;29;20030;-84
2021/11/09 13:52:47;;;;;;;13.80;5.20;;;12.80;99.90;;;;;;4874278;29;20059;-80
2021/11/09 13:55:15;;;;;;;23.88;5.20;;;12.80;99.90;;;;;;4865084;29;20033;-83
2021/11/09 13:57:41;;;;;;;17.05;6.50;;;12.80;99.90;;;;;;4860345;29;20546;-81
2021/11/09 14:00:32;;;;;;;11.05;5.03;;;12.80;99.90;;;;;;4875037;29;20037;-83
2021/11/09 14:06:24;;;;;;;16.02;5.55;;;12.70;99.90;;;;;;4876431;29;20040;-82
2021/11/09 14:14:24;;;;;;;21.27;6.50;;;12.70;99.90;;;;;;4880935;29;20032;-81
2021/11/09 14:16:53;;;;;;;19.33;6.25;;;12.60;99.90;;;;;;4870918;29;20025;-80
2021/11/09 14:19:32;;;;;;;19.00;5.90;;;12.60;99.90;;;;;;4853400;29;20598;-80
2021/11/09 14:22:07;;;;;;;18.65;6.13;;;12.60;99.90;;;;;;4869275;29;20518;-81
2021/11/09 14:24:33;;;;;;;24.95;6.03;;;12.70;99.90;;;;;;4866769;29;20041;-81
2021/11/09 14:27:13;;;;;;;23.10;5.72;;;12.70;99.90;;;;;;4880565;29;20045;-81
2021/11/09 14:29:50;;;;;;;16.00;4.45;;;12.60;99.90;;;;;;4881209;29;20033;-81
2021/11/09 14:32:21;;;;;;;22.33;6.18;;;12.60;99.90;;;;;;4870767;29;20493;-81
2021/11/09 14:35:08;;;;;;;17.08;4.72;;;12.60;99.90;;;;;;4866139;29;20113;-82
2021/11/09 14:37:52;;;;;;;21.13;5.15;;;12.70;99.90;;;;;;4864621;29;20049;-82
2021/11/09 14:40:19;;;;;;;21.02;6.70;;;12.60;99.90;;;;;;4885439;29;20069;-81
2021/11/09 14:48:08;;;;;;;19.38;4.43;;;12.60;99.90;;;;;;4880826;29;20114;-83
2021/11/09 14:50:49;;;;;;;11.82;4.63;;;12.50;99.90;;;;;;4881871;29;20025;-80
2021/11/09 14:53:34;;;;;;;21.95;5.80;;;12.50;99.90;;;;;;4894123;29;20036;-80
2021/11/09 14:56:13;;;;;;;13.38;5.00;;;12.50;99.90;;;;;;4868926;29;20044;-83
2021/11/09 14:58:59;;;;;;;15.52;5.80;;;12.40;99.90;;;;;;4876335;29;20026;-83
2021/11/09 15:01:37;;;;;;;25.95;6.47;;;12.40;99.90;;;;;;4875298;29;20505;-84
2021/11/09 15:04:21;;;;;;;19.85;5.18;;;12.40;99.90;;;;;;4876078;29;20486;-83
2021/11/09 15:07:12;;;;;;;15.60;5.32;;;12.40;99.90;;;;;;4875187;29;20041;-81
2021/11/09 15:28:44;;;;;;;20.60;5.75;;;12.20;99.90;;;;;;4883375;29;20037;-87
2021/11/09 15:31:20;;;;;;;15.80;5.28;;;12.10;99.90;;;;;;4863404;29;20040;-83
2021/11/09 15:33:49;;;;;;;13.73;5.13;;;12.10;99.90;;;;;;4859424;29;20037;-83
2021/11/09 15:38:45;;;;;;;16.05;5.40;;;12.10;99.90;;;;;;4880212;29;20083;-82
2021/11/09 15:41:11;;;;;;;18.98;5.30;;;12.10;99.90;;;;;;4861932;29;20033;-81
2021/11/09 15:43:39;;;;;;;16.88;4.78;;;12.00;99.90;;;;;;4879073;29;20384;-83
2021/11/09 15:46:05;;;;;;;;;;;12.00;99.90;;;;;;4861046;29;20468;-86
2021/11/09 15:48:33;;;;;;;21.73;4.93;;;12.00;99.90;;;;;;4869366;29;19923;-84
2021/11/09 15:50:59;;;;;;;24.30;5.47;;;12.00;99.90;;;;;;4860944;29;20028;-85
2021/11/09 15:53:27;;;;;;;21.23;5.68;;;12.00;99.90;;;;;;4863964;29;20470;-84
2021/11/09 15:55:53;;;;;;;23.70;6.22;;;12.00;99.90;;;;;;4863465;29;20029;-84
2021/11/09 15:58:19;;;;;;;21.00;6.38;;;12.00;99.90;;;;;;4882857;29;20120;-84
2021/11/09 16:00:46;;;;;;;14.00;4.28;;;12.00;99.90;;;;;;4883803;29;20398;-83